createdAt,value
2018-04-13T00:00:32.677Z,7.90
2018-04-13T00:01:39.384Z,7.30
2018-04-13T00:02:46.104Z,7.90
2018-04-13T00:03:52.895Z,8.20
2018-04-13T00:04:59.672Z,7.90
2018-04-13T00:06:06.388Z,8.00
2018-04-13T00:07:13.179Z,8.20
2018-04-13T00:08:19.971Z,8.40
2018-04-13T00:09:26.707Z,7.80
2018-04-13T00:10:33.402Z,8.40
2018-04-13T00:11:40.124Z,8.50
2018-04-13T00:12:46.836Z,8.10
2018-04-13T00:13:53.535Z,9.30
2018-04-13T00:15:00.511Z,8.40
2018-04-13T00:16:07.291Z,8.80
2018-04-13T00:17:13.975Z,7.60
2018-04-13T00:18:20.739Z,7.50
2018-04-13T00:19:27.459Z,8.10
2018-04-13T00:20:34.191Z,8.70
2018-04-13T00:21:40.966Z,7.90
2018-04-13T00:22:47.744Z,8.00
2018-04-13T00:23:54.475Z,8.10
2018-04-13T00:25:01.211Z,7.70
2018-04-13T00:26:08.036Z,7.90
2018-04-13T00:27:14.772Z,8.10
2018-04-13T00:28:21.489Z,7.70
2018-04-13T00:29:28.288Z,8.10
2018-04-13T00:30:34.983Z,8.00
2018-04-13T00:31:41.766Z,7.80
2018-04-13T00:32:48.476Z,8.40
2018-04-13T00:33:55.165Z,7.60
2018-04-13T00:35:01.899Z,8.70
2018-04-13T00:36:08.763Z,8.00
2018-04-13T00:37:15.456Z,8.20
2018-04-13T00:38:22.200Z,7.90
2018-04-13T00:39:28.893Z,7.40
2018-04-13T00:40:35.611Z,8.00
2018-04-13T00:41:42.326Z,7.50
2018-04-13T00:42:49.095Z,8.00
2018-04-13T00:43:55.768Z,8.00
2018-04-13T00:45:02.477Z,7.10
2018-04-13T00:46:09.211Z,8.50
2018-04-13T00:47:16.246Z,7.80
2018-04-13T00:48:23.115Z,7.80
2018-04-13T00:49:29.920Z,7.50
2018-04-13T00:50:36.603Z,7.30
2018-04-13T00:51:43.284Z,6.90
2018-04-13T00:52:50.068Z,7.00
2018-04-13T00:53:56.968Z,7.50
2018-04-13T00:55:03.675Z,6.80
2018-04-13T00:56:10.372Z,7.00
2018-04-13T00:57:17.092Z,8.10
2018-04-13T00:58:24.132Z,7.90
2018-04-13T00:59:30.864Z,7.30
2018-04-13T01:00:37.549Z,7.60
2018-04-13T01:01:44.525Z,10.00
2018-04-13T01:02:51.311Z,7.90
2018-04-13T01:03:58.031Z,7.20
2018-04-13T01:05:04.854Z,7.90
2018-04-13T01:06:11.545Z,7.60
2018-04-13T01:07:18.240Z,7.30
2018-04-13T01:08:25.220Z,7.00
2018-04-13T01:09:31.951Z,7.50
2018-04-13T01:10:38.644Z,7.10
2018-04-13T01:11:45.471Z,8.10
2018-04-13T01:12:52.180Z,7.20
2018-04-13T01:13:58.889Z,6.90
2018-04-13T01:15:05.655Z,7.40
2018-04-13T01:16:12.349Z,7.80
2018-04-13T01:17:19.072Z,7.70
2018-04-13T01:18:25.814Z,6.90
2018-04-13T01:19:32.523Z,7.30
2018-04-13T01:20:39.234Z,7.80
2018-04-13T01:21:46.111Z,7.70
2018-04-13T01:22:52.843Z,9.20
2018-04-13T01:23:59.564Z,7.80
2018-04-13T01:25:06.276Z,7.90
2018-04-13T01:26:12.975Z,8.30
2018-04-13T01:27:19.778Z,7.70
2018-04-13T01:28:26.526Z,7.30
2018-04-13T01:29:33.240Z,6.70
2018-04-13T01:30:39.976Z,7.80
2018-04-13T01:31:46.682Z,7.10
2018-04-13T01:32:53.531Z,6.70
2018-04-13T01:34:00.285Z,7.40
2018-04-13T01:35:06.989Z,7.10
2018-04-13T01:36:13.734Z,7.50
2018-04-13T01:37:20.416Z,7.20
2018-04-13T01:38:27.161Z,7.20
2018-04-13T01:39:33.908Z,7.40
2018-04-13T01:40:40.599Z,7.70
2018-04-13T01:41:47.310Z,7.10
2018-04-13T01:42:54.020Z,7.90
2018-04-13T01:44:00.767Z,7.60
2018-04-13T01:45:07.632Z,8.00
2018-04-13T01:46:14.328Z,7.70
2018-04-13T01:47:21.061Z,7.60
2018-04-13T01:48:27.782Z,7.50
2018-04-13T01:49:34.607Z,8.10
2018-04-13T01:50:41.360Z,8.10
2018-04-13T01:51:48.100Z,7.60
2018-04-13T01:52:54.892Z,7.20
2018-04-13T01:54:01.675Z,7.80
2018-04-13T01:55:08.426Z,7.80
2018-04-13T01:56:15.199Z,7.60
2018-04-13T01:57:21.944Z,6.60
2018-04-13T01:58:28.827Z,6.90
2018-04-13T01:59:35.598Z,6.90
2018-04-13T02:00:42.366Z,6.50
2018-04-13T02:01:49.532Z,7.00
2018-04-13T02:02:56.299Z,7.30
2018-04-13T02:04:03.100Z,7.40
2018-04-13T02:05:09.904Z,7.20
2018-04-13T02:06:16.685Z,7.60
2018-04-13T02:07:23.543Z,7.40
2018-04-13T02:08:30.527Z,6.70
2018-04-13T02:09:37.352Z,9.50
2018-04-13T02:10:44.116Z,7.80
2018-04-13T02:11:50.904Z,7.80
2018-04-13T02:12:57.644Z,6.20
2018-04-13T02:14:04.444Z,6.80
2018-04-13T02:15:11.219Z,7.00
2018-04-13T02:16:18.005Z,8.50
2018-04-13T02:17:24.757Z,8.10
2018-04-13T02:18:31.551Z,8.40
2018-04-13T02:19:38.419Z,9.10
2018-04-13T02:20:45.191Z,7.90
2018-04-13T02:21:51.996Z,8.20
2018-04-13T02:22:58.759Z,8.10
2018-04-13T02:24:05.534Z,7.90
2018-04-13T02:25:12.455Z,8.50
2018-04-13T02:26:19.243Z,7.90
2018-04-13T02:27:26.100Z,12.10
2018-04-13T02:28:32.881Z,7.90
2018-04-13T02:29:39.663Z,8.40
2018-04-13T02:30:46.447Z,9.60
2018-04-13T02:31:53.560Z,8.50
2018-04-13T02:33:00.322Z,7.90
2018-04-13T02:34:07.128Z,8.00
2018-04-13T02:35:14.220Z,8.00
2018-04-13T02:36:20.992Z,8.20
2018-04-13T02:37:27.759Z,9.30
2018-04-13T02:38:34.843Z,7.80
2018-04-13T02:39:41.596Z,7.40
2018-04-13T02:40:48.379Z,7.20
2018-04-13T02:41:55.447Z,8.50
2018-04-13T02:43:02.306Z,7.50
2018-04-13T02:44:09.069Z,7.30
2018-04-13T02:45:15.997Z,8.00
2018-04-13T02:46:22.771Z,7.90
2018-04-13T02:47:29.520Z,7.20
2018-04-13T02:48:36.331Z,8.10
2018-04-13T02:49:43.212Z,6.90
2018-04-13T02:50:49.971Z,6.70
2018-04-13T02:51:56.858Z,7.30
2018-04-13T02:53:03.639Z,7.70
2018-04-13T02:54:10.372Z,6.80
2018-04-13T02:55:17.152Z,5.90
2018-04-13T02:56:23.881Z,6.40
2018-04-13T02:57:30.604Z,7.10
2018-04-13T02:58:37.384Z,8.10
2018-04-13T02:59:44.144Z,7.20
2018-04-13T03:00:51.485Z,7.30
2018-04-13T03:01:57.813Z,7.00
2018-04-13T03:03:04.508Z,8.50
2018-04-13T03:04:11.204Z,6.40
2018-04-13T03:05:18.213Z,8.00
2018-04-13T03:06:24.952Z,7.10
2018-04-13T03:07:31.675Z,8.10
2018-04-13T03:08:38.403Z,6.60
2018-04-13T03:09:45.217Z,6.90
2018-04-13T03:10:51.926Z,7.60
2018-04-13T03:11:58.752Z,8.50
2018-04-13T03:13:05.475Z,7.60
2018-04-13T03:14:12.183Z,6.80
2018-04-13T03:15:18.935Z,7.20
2018-04-13T03:16:25.647Z,7.70
2018-04-13T03:17:32.536Z,6.80
2018-04-13T03:18:39.285Z,7.00
2018-04-13T03:19:46.020Z,7.80
2018-04-13T03:20:52.763Z,6.80
2018-04-13T03:21:59.447Z,6.60
2018-04-13T03:23:06.193Z,7.30
2018-04-13T03:24:12.967Z,7.00
2018-04-13T03:25:19.702Z,7.50
2018-04-13T03:26:26.509Z,7.10
2018-04-13T03:27:33.210Z,7.40
2018-04-13T03:28:39.939Z,7.40
2018-04-13T03:29:46.727Z,6.50
2018-04-13T03:30:53.426Z,9.10
2018-04-13T03:32:00.395Z,7.10
2018-04-13T03:33:07.227Z,7.20
2018-04-13T03:34:14.006Z,7.80
2018-04-13T03:35:20.746Z,8.10
2018-04-13T03:36:27.471Z,6.90
2018-04-13T03:37:34.290Z,7.10
2018-04-13T03:38:41.481Z,7.30
2018-04-13T03:39:48.207Z,8.00
2018-04-13T03:40:54.913Z,7.90
2018-04-13T03:42:01.680Z,7.60
2018-04-13T03:43:08.555Z,7.30
2018-04-13T03:44:15.292Z,7.80
2018-04-13T03:45:22.039Z,7.90
2018-04-13T03:46:28.783Z,8.20
2018-04-13T03:47:35.483Z,7.70
2018-04-13T03:48:42.245Z,7.10
2018-04-13T03:49:49.083Z,7.30
2018-04-13T03:50:55.819Z,9.40
2018-04-13T03:52:02.514Z,8.30
2018-04-13T03:53:09.444Z,9.20
2018-04-13T03:54:16.208Z,7.40
2018-04-13T03:55:22.988Z,7.40
2018-04-13T03:56:29.777Z,7.10
2018-04-13T03:57:36.584Z,7.20
2018-04-13T03:58:43.343Z,7.00
2018-04-13T03:59:50.131Z,7.80
2018-04-13T04:00:56.899Z,8.10
2018-04-13T04:02:03.740Z,8.00
2018-04-13T04:03:10.512Z,10.10
2018-04-13T04:04:17.260Z,8.90
2018-04-13T04:05:24.206Z,9.40
2018-04-13T04:06:30.999Z,8.50
2018-04-13T04:07:37.748Z,8.80
2018-04-13T04:08:44.627Z,8.00
2018-04-13T04:09:51.447Z,8.80
2018-04-13T04:10:58.248Z,11.70
2018-04-13T04:12:05.096Z,8.80
2018-04-13T04:13:11.837Z,8.60
2018-04-13T04:14:18.638Z,8.70
2018-04-13T04:15:25.503Z,9.00
2018-04-13T04:16:32.331Z,9.20
2018-04-13T04:17:39.076Z,15.20
2018-04-13T04:18:45.839Z,14.90
2018-04-13T04:19:52.668Z,13.90
2018-04-13T04:20:59.551Z,11.10
2018-04-13T04:22:11.112Z,11.10
2018-04-13T04:23:18.223Z,8.60
2018-04-13T04:24:28.804Z,8.60
2018-04-13T04:25:39.146Z,8.60
2018-04-13T04:26:46.256Z,10.30
2018-04-13T04:27:53.212Z,9.80
2018-04-13T04:29:00.227Z,8.00
2018-04-13T04:30:06.991Z,8.00
2018-04-13T04:31:13.763Z,7.70
2018-04-13T04:32:20.831Z,8.10
2018-04-13T04:33:27.603Z,11.90
2018-04-13T04:34:34.371Z,12.20
2018-04-13T04:35:41.534Z,13.50
2018-04-13T04:36:48.420Z,8.10
2018-04-13T04:37:55.180Z,14.00
2018-04-13T04:39:02.240Z,13.10
2018-04-13T04:40:08.870Z,13.50
2018-04-13T04:41:15.682Z,11.60
2018-04-13T04:42:22.671Z,10.90
2018-04-13T04:43:29.428Z,11.40
2018-04-13T04:44:36.269Z,16.20
2018-04-13T04:45:43.116Z,9.40
2018-04-13T04:46:49.927Z,9.40
2018-04-13T04:47:56.717Z,8.00
2018-04-13T04:49:03.575Z,18.00
2018-04-13T04:50:10.340Z,16.50
2018-04-13T04:51:17.143Z,13.80
2018-04-13T04:52:24.037Z,9.60
2018-04-13T04:53:30.791Z,8.70
2018-04-13T04:54:37.603Z,9.00
2018-04-13T04:55:44.332Z,8.40
2018-04-13T04:56:51.127Z,8.20
2018-04-13T04:57:57.911Z,8.50
2018-04-13T04:59:04.676Z,8.60
2018-04-13T05:00:11.571Z,9.20
2018-04-13T05:01:18.358Z,8.40
2018-04-13T05:02:25.150Z,9.30
2018-04-13T05:03:32.019Z,8.90
2018-04-13T05:04:38.835Z,9.20
2018-04-13T05:05:45.600Z,9.80
2018-04-13T05:06:52.459Z,8.90
2018-04-13T05:07:59.252Z,8.20
2018-04-13T05:09:06.015Z,8.40
2018-04-13T05:10:12.869Z,8.50
2018-04-13T05:11:19.635Z,8.60
2018-04-13T05:12:26.391Z,9.90
2018-04-13T05:13:33.191Z,8.20
2018-04-13T05:14:40.007Z,11.10
2018-04-13T05:15:46.744Z,8.00
2018-04-13T05:16:53.527Z,11.20
2018-04-13T05:18:00.313Z,9.40
2018-04-13T05:19:07.140Z,8.60
2018-04-13T05:20:13.925Z,9.70
2018-04-13T05:21:20.688Z,11.10
2018-04-13T05:22:28.399Z,12.50
2018-04-13T05:23:34.760Z,8.30
2018-04-13T05:24:41.588Z,10.60
2018-04-13T05:25:48.560Z,8.60
2018-04-13T05:26:55.452Z,9.50
2018-04-13T05:28:02.343Z,9.10
2018-04-13T05:29:09.193Z,12.10
2018-04-13T05:30:15.957Z,8.80
2018-04-13T05:31:22.759Z,13.10
2018-04-13T05:32:29.515Z,12.10
2018-04-13T05:33:36.270Z,12.20
2018-04-13T05:34:43.083Z,13.50
2018-04-13T05:35:49.831Z,12.10
2018-04-13T05:36:56.601Z,10.70
2018-04-13T05:38:03.392Z,11.20
2018-04-13T05:39:10.248Z,14.40
2018-04-13T05:40:17.017Z,9.60
2018-04-13T05:41:23.799Z,11.30
2018-04-13T05:42:30.666Z,11.30
2018-04-13T05:43:37.444Z,9.40
2018-04-13T05:44:44.224Z,15.20
2018-04-13T05:45:50.973Z,12.10
2018-04-13T05:46:57.739Z,10.10
2018-04-13T05:48:04.509Z,9.50
2018-04-13T05:49:11.257Z,10.20
2018-04-13T05:50:18.147Z,9.90
2018-04-13T05:51:24.944Z,10.40
2018-04-13T05:52:31.678Z,10.40
2018-04-13T05:53:38.386Z,16.80
2018-04-13T05:54:45.105Z,19.60
2018-04-13T05:55:51.866Z,10.80
2018-04-13T05:56:58.614Z,9.40
2018-04-13T05:58:05.336Z,9.30
2018-04-13T05:59:12.068Z,10.30
2018-04-13T06:00:18.809Z,10.30
2018-04-13T06:01:25.639Z,9.00
2018-04-13T06:02:32.355Z,9.70
2018-04-13T06:03:39.137Z,11.80
2018-04-13T06:04:45.859Z,12.40
2018-04-13T06:05:52.829Z,14.10
2018-04-13T06:06:59.547Z,12.60
2018-04-13T06:08:06.317Z,11.40
2018-04-13T06:09:13.041Z,12.70
2018-04-13T06:10:19.822Z,10.60
2018-04-13T06:11:26.593Z,12.90
2018-04-13T06:12:33.304Z,20.10
2018-04-13T06:13:40.019Z,18.80
2018-04-13T06:14:46.727Z,19.30
2018-04-13T06:15:53.595Z,23.30
2018-04-13T06:17:00.361Z,19.40
2018-04-13T06:18:07.091Z,19.80
2018-04-13T06:19:13.903Z,17.10
2018-04-13T06:20:20.696Z,18.90
2018-04-13T06:21:27.427Z,12.00
2018-04-13T06:22:34.143Z,14.40
2018-04-13T06:23:40.856Z,13.10
2018-04-13T06:24:47.646Z,13.30
2018-04-13T06:25:54.463Z,15.50
2018-04-13T06:27:01.250Z,14.10
2018-04-13T06:28:08.051Z,15.30
2018-04-13T06:29:14.766Z,14.80
2018-04-13T06:30:21.624Z,14.30
2018-04-13T06:31:28.390Z,17.40
2018-04-13T06:32:35.119Z,15.90
2018-04-13T06:33:41.852Z,14.70
2018-04-13T06:34:48.667Z,16.80
2018-04-13T06:35:55.373Z,14.60
2018-04-13T06:37:02.124Z,14.20
2018-04-13T06:38:09.228Z,12.80
2018-04-13T06:39:15.946Z,12.90
2018-04-13T06:40:22.724Z,14.20
2018-04-13T06:41:29.428Z,12.90
2018-04-13T06:42:36.273Z,15.00
2018-04-13T06:43:43.010Z,14.90
2018-04-13T06:44:49.740Z,15.00
2018-04-13T06:45:56.472Z,16.30
2018-04-13T06:47:03.203Z,13.30
2018-04-13T06:48:09.983Z,17.70
2018-04-13T06:49:16.682Z,15.80
2018-04-13T06:50:23.388Z,17.60
2018-04-13T06:51:30.139Z,19.10
2018-04-13T06:52:36.930Z,13.50
2018-04-13T06:53:43.747Z,14.80
2018-04-13T06:54:50.511Z,18.20
2018-04-13T06:55:57.359Z,13.70
2018-04-13T06:57:04.199Z,14.80
2018-04-13T06:58:10.980Z,16.20
2018-04-13T06:59:17.987Z,16.80
2018-04-13T07:00:24.752Z,16.00
2018-04-13T07:01:31.586Z,17.30
2018-04-13T07:02:38.335Z,16.00
2018-04-13T07:03:45.159Z,15.10
2018-04-13T07:04:51.927Z,16.90
2018-04-13T07:05:58.868Z,15.90
2018-04-13T07:07:05.608Z,16.40
2018-04-13T07:08:12.427Z,18.20
2018-04-13T07:09:19.170Z,18.70
2018-04-13T07:10:25.996Z,15.80
2018-04-13T07:11:32.863Z,18.80
2018-04-13T07:12:39.590Z,18.70
2018-04-13T07:13:46.443Z,17.30
2018-04-13T07:14:53.199Z,16.90
2018-04-13T07:15:59.954Z,17.60
2018-04-13T07:17:06.730Z,18.10
2018-04-13T07:18:13.552Z,17.50
2018-04-13T07:19:20.502Z,17.70
2018-04-13T07:20:27.311Z,18.10
2018-04-13T07:21:34.069Z,18.40
2018-04-13T07:22:40.875Z,17.90
2018-04-13T07:23:47.775Z,19.50
2018-04-13T07:24:54.632Z,16.80
2018-04-13T07:26:01.389Z,18.20
2018-04-13T07:27:08.257Z,17.70
2018-04-13T07:28:15.080Z,18.70
2018-04-13T07:29:21.955Z,17.10
2018-04-13T07:30:28.757Z,17.60
2018-04-13T07:31:36.041Z,17.50
2018-04-13T07:32:42.509Z,16.00
2018-04-13T07:33:49.267Z,18.90
2018-04-13T07:34:56.060Z,18.50
2018-04-13T07:36:02.854Z,21.40
2018-04-13T07:37:09.624Z,19.20
2018-04-13T07:38:16.379Z,18.00
2018-04-13T07:39:23.215Z,16.70
2018-04-13T07:40:30.208Z,16.00
2018-04-13T07:41:37.087Z,18.50
2018-04-13T07:42:43.843Z,17.70
2018-04-13T07:43:50.567Z,17.40
2018-04-13T07:44:57.545Z,17.20
2018-04-13T07:46:04.323Z,18.30
2018-04-13T07:47:11.082Z,19.80
2018-04-13T07:48:18.210Z,19.20
2018-04-13T07:49:24.627Z,15.90
2018-04-13T07:50:31.464Z,18.20
2018-04-13T07:51:38.400Z,17.10
2018-04-13T07:52:45.083Z,19.80
2018-04-13T07:53:51.781Z,15.70
2018-04-13T07:54:58.507Z,16.60
2018-04-13T07:56:05.235Z,17.30
2018-04-13T07:57:11.959Z,17.00
2018-04-13T07:58:18.658Z,16.90
2018-04-13T07:59:25.665Z,19.40
2018-04-13T08:00:32.198Z,20.10
2018-04-13T08:01:38.916Z,18.50
2018-04-13T08:02:45.963Z,18.80
2018-04-13T08:03:52.683Z,23.00
2018-04-13T08:04:59.391Z,18.50
2018-04-13T08:06:06.128Z,20.30
2018-04-13T08:07:12.825Z,19.20
2018-04-13T08:08:19.611Z,19.70
2018-04-13T08:09:26.366Z,19.70
2018-04-13T08:10:33.080Z,22.80
2018-04-13T08:11:39.835Z,19.00
2018-04-13T08:12:46.568Z,21.60
2018-04-13T08:13:53.352Z,21.50
2018-04-13T08:15:00.681Z,19.90
2018-04-13T08:16:06.854Z,19.10
2018-04-13T08:17:13.590Z,19.50
2018-04-13T08:18:20.283Z,20.90
2018-04-13T08:19:27.078Z,20.50
2018-04-13T08:20:33.822Z,20.10
2018-04-13T08:21:40.564Z,20.50
2018-04-13T08:22:47.311Z,20.70
2018-04-13T08:23:54.031Z,22.40
2018-04-13T08:25:00.879Z,26.10
2018-04-13T08:26:07.667Z,23.00
2018-04-13T08:27:14.643Z,25.50
2018-04-13T08:28:21.346Z,23.30
2018-04-13T08:29:28.162Z,26.80
2018-04-13T08:30:34.858Z,21.00
2018-04-13T08:31:41.602Z,23.40
2018-04-13T08:32:48.417Z,20.80
2018-04-13T08:33:55.100Z,21.20
2018-04-13T08:35:01.834Z,19.30
2018-04-13T08:36:08.591Z,19.20
2018-04-13T08:37:15.348Z,16.10
2018-04-13T08:38:22.105Z,19.40
2018-04-13T08:39:28.843Z,22.10
2018-04-13T08:40:35.583Z,25.30
2018-04-13T08:41:42.328Z,19.90
2018-04-13T08:42:49.076Z,22.10
2018-04-13T08:43:55.867Z,17.70
2018-04-13T08:45:02.594Z,17.20
2018-04-13T08:46:09.345Z,17.60
2018-04-13T08:47:16.081Z,19.70
2018-04-13T08:48:22.855Z,18.50
2018-04-13T08:49:29.631Z,20.90
2018-04-13T08:50:36.471Z,16.90
2018-04-13T08:51:43.207Z,18.40
2018-04-13T08:52:50.293Z,23.80
2018-04-13T08:53:57.046Z,18.40
2018-04-13T08:55:03.874Z,18.00
2018-04-13T08:56:10.771Z,15.50
2018-04-13T08:57:17.638Z,18.00
2018-04-13T08:58:24.392Z,18.40
2018-04-13T08:59:31.199Z,16.30
2018-04-13T09:00:37.939Z,13.70
2018-04-13T09:01:44.714Z,14.50
2018-04-13T09:02:51.546Z,15.10
2018-04-13T09:03:58.383Z,16.10
2018-04-13T09:05:05.150Z,15.90
2018-04-13T09:06:11.891Z,17.30
2018-04-13T09:07:18.674Z,18.00
2018-04-13T09:08:25.447Z,18.50
2018-04-13T09:09:32.284Z,18.40
2018-04-13T09:10:39.069Z,17.00
2018-04-13T09:11:45.808Z,15.60
2018-04-13T09:12:52.567Z,16.00
2018-04-13T09:13:59.355Z,18.30
2018-04-13T09:15:06.116Z,17.50
2018-04-13T09:16:12.877Z,17.80
2018-04-13T09:17:19.671Z,17.40
2018-04-13T09:18:26.570Z,16.80
2018-04-13T09:19:33.367Z,15.30
2018-04-13T09:20:40.255Z,16.60
2018-04-13T09:21:47.040Z,16.00
2018-04-13T09:22:53.807Z,16.90
2018-04-13T09:24:00.719Z,16.90
2018-04-13T09:25:07.603Z,16.10
2018-04-13T09:26:14.491Z,15.60
2018-04-13T09:27:21.288Z,14.90
2018-04-13T09:28:28.968Z,15.70
2018-04-13T09:29:35.224Z,16.30
2018-04-13T09:30:42.180Z,17.50
2018-04-13T09:31:49.011Z,15.70
2018-04-13T09:32:55.879Z,15.90
2018-04-13T09:34:02.656Z,15.90
2018-04-13T09:35:09.418Z,14.60
2018-04-13T09:36:16.246Z,15.20
2018-04-13T09:37:22.981Z,14.80
2018-04-13T09:38:29.752Z,14.30
2018-04-13T09:39:36.524Z,17.00
2018-04-13T09:40:43.263Z,17.00
2018-04-13T09:41:50.050Z,20.50
2018-04-13T09:42:56.811Z,16.30
2018-04-13T09:44:03.598Z,18.60
2018-04-13T09:45:10.365Z,18.90
2018-04-13T09:46:17.152Z,15.90
2018-04-13T09:47:23.924Z,23.40
2018-04-13T09:48:30.700Z,16.10
2018-04-13T09:49:37.473Z,16.00
2018-04-13T09:50:44.252Z,15.20
2018-04-13T09:51:51.028Z,13.20
2018-04-13T09:52:57.771Z,15.10
2018-04-13T09:54:04.555Z,11.60
2018-04-13T09:55:11.353Z,12.30
2018-04-13T09:56:18.087Z,14.60
2018-04-13T09:57:24.854Z,12.90
2018-04-13T09:58:31.575Z,12.20
2018-04-13T09:59:38.450Z,11.30
2018-04-13T10:00:45.215Z,12.50
2018-04-13T10:01:52.020Z,12.50
2018-04-13T10:02:58.880Z,14.50
2018-04-13T10:04:05.630Z,15.70
2018-04-13T10:05:12.457Z,11.90
2018-04-13T10:06:19.524Z,11.20
2018-04-13T10:07:26.295Z,10.50
2018-04-13T10:08:33.127Z,10.10
2018-04-13T10:09:39.891Z,11.40
2018-04-13T10:10:46.696Z,11.00
2018-04-13T10:11:53.446Z,11.30
2018-04-13T10:13:00.478Z,12.00
2018-04-13T10:14:07.239Z,13.20
2018-04-13T10:15:14.080Z,10.40
2018-04-13T10:16:20.845Z,10.50
2018-04-13T10:17:27.630Z,10.50
2018-04-13T10:18:34.576Z,9.70
2018-04-13T10:19:41.659Z,10.00
2018-04-13T10:20:48.514Z,10.60
2018-04-13T10:21:55.291Z,10.10
2018-04-13T10:23:02.456Z,10.50
2018-04-13T10:24:09.270Z,9.60
2018-04-13T10:25:16.061Z,10.40
2018-04-13T10:26:22.865Z,10.10
2018-04-13T10:27:29.724Z,9.10
2018-04-13T10:28:36.483Z,9.40
2018-04-13T10:29:43.260Z,9.00
2018-04-13T10:30:50.021Z,8.70
2018-04-13T10:31:56.842Z,11.90
2018-04-13T10:33:03.835Z,9.10
2018-04-13T10:34:10.635Z,11.20
2018-04-13T10:35:17.396Z,8.70
2018-04-13T10:36:24.188Z,8.70
2018-04-13T10:37:30.963Z,10.10
2018-04-13T10:38:37.753Z,9.30
2018-04-13T10:39:44.512Z,8.30
2018-04-13T10:40:51.395Z,10.50
2018-04-13T10:41:58.247Z,8.70
2018-04-13T10:43:05.007Z,8.10
2018-04-13T10:44:11.840Z,8.50
2018-04-13T10:45:18.672Z,8.00
2018-04-13T10:46:25.475Z,7.10
2018-04-13T10:47:32.339Z,10.70
2018-04-13T10:48:39.120Z,6.90
2018-04-13T10:49:46.247Z,9.50
2018-04-13T10:50:52.993Z,9.50
2018-04-13T10:51:59.772Z,8.40
2018-04-13T10:53:06.528Z,7.80
2018-04-13T10:54:13.386Z,8.30
2018-04-13T10:55:20.146Z,9.40
2018-04-13T10:56:26.926Z,9.70
2018-04-13T10:57:33.709Z,8.40
2018-04-13T10:58:40.488Z,9.40
2018-04-13T10:59:47.247Z,10.00
2018-04-13T11:00:54.007Z,7.60
2018-04-13T11:02:00.781Z,8.80
2018-04-13T11:03:07.619Z,7.00
2018-04-13T11:04:14.401Z,7.20
2018-04-13T11:05:21.176Z,8.00
2018-04-13T11:06:28.178Z,8.70
2018-04-13T11:07:35.073Z,8.20
2018-04-13T11:08:41.858Z,6.00
2018-04-13T11:09:48.635Z,6.80
2018-04-13T11:10:55.389Z,7.20
2018-04-13T11:12:02.370Z,5.90
2018-04-13T11:13:09.186Z,6.10
2018-04-13T11:14:15.911Z,5.80
2018-04-13T11:15:22.739Z,5.30
2018-04-13T11:16:29.714Z,9.10
2018-04-13T11:17:36.548Z,7.30
2018-04-13T11:18:43.323Z,6.80
2018-04-13T11:19:50.099Z,6.60
2018-04-13T11:20:56.855Z,6.40
2018-04-13T11:22:03.666Z,5.00
2018-04-13T11:23:10.452Z,5.00
2018-04-13T11:24:17.243Z,5.70
2018-04-13T11:25:24.174Z,4.20
2018-04-13T11:26:30.964Z,5.00
2018-04-13T11:27:37.723Z,3.80
2018-04-13T11:28:44.561Z,3.70
2018-04-13T11:29:51.346Z,4.00
2018-04-13T11:30:58.095Z,3.50
2018-04-13T11:32:04.872Z,4.00
2018-04-13T11:33:11.632Z,4.40
2018-04-13T11:34:18.429Z,3.30
2018-04-13T11:35:25.184Z,3.40
2018-04-13T11:36:32.047Z,3.10
2018-04-13T11:37:38.817Z,5.20
2018-04-13T11:38:45.594Z,3.00
2018-04-13T11:39:52.363Z,3.20
2018-04-13T11:40:59.145Z,2.90
2018-04-13T11:42:05.894Z,3.00
2018-04-13T11:43:12.676Z,3.60
2018-04-13T11:44:19.443Z,3.00
2018-04-13T11:45:26.237Z,3.10
2018-04-13T11:46:32.976Z,3.00
2018-04-13T11:47:39.752Z,2.80
2018-04-13T11:48:46.502Z,3.00
2018-04-13T11:49:53.575Z,3.10
2018-04-13T11:51:00.320Z,3.20
2018-04-13T11:52:07.150Z,3.10
2018-04-13T11:53:14.177Z,3.70
2018-04-13T11:54:20.929Z,3.10
2018-04-13T11:55:27.663Z,3.50
2018-04-13T11:56:34.355Z,5.40
2018-04-13T11:57:41.116Z,2.90
2018-04-13T11:58:47.836Z,2.90
2018-04-13T11:59:54.654Z,3.30
2018-04-13T12:01:01.387Z,3.50
2018-04-13T12:02:08.108Z,3.40
2018-04-13T12:03:14.887Z,2.80
2018-04-13T12:04:21.578Z,3.00
2018-04-13T12:05:28.408Z,3.90
2018-04-13T12:06:35.136Z,4.40
2018-04-13T12:07:41.853Z,3.10
2018-04-13T12:08:48.568Z,3.30
2018-04-13T12:09:55.299Z,3.10
2018-04-13T12:11:02.115Z,2.70
2018-04-13T12:12:09.296Z,4.40
2018-04-13T12:13:16.036Z,5.60
2018-04-13T12:14:22.774Z,3.30
2018-04-13T12:15:29.534Z,3.20
2018-04-13T12:16:36.238Z,6.50
2018-04-13T12:17:43.040Z,2.80
2018-04-13T12:18:49.760Z,3.30
2018-04-13T12:19:56.493Z,2.60
2018-04-13T12:21:03.364Z,3.40
2018-04-13T12:22:10.133Z,3.50
2018-04-13T12:23:17.161Z,2.90
2018-04-13T12:24:23.937Z,2.80
2018-04-13T12:25:30.756Z,5.50
2018-04-13T12:26:37.575Z,3.40
2018-04-13T12:27:44.380Z,3.00
2018-04-13T12:28:51.188Z,3.60
2018-04-13T12:29:57.907Z,4.10
2018-04-13T12:31:04.691Z,2.60
2018-04-13T12:32:11.443Z,3.30
2018-04-13T12:33:18.171Z,3.20
2018-04-13T12:34:24.899Z,2.80
2018-04-13T12:35:31.657Z,3.30
2018-04-13T12:36:38.498Z,2.20
2018-04-13T12:37:45.215Z,3.80
2018-04-13T12:38:51.986Z,5.30
2018-04-13T12:39:58.727Z,5.00
2018-04-13T12:41:05.624Z,5.30
2018-04-13T12:42:12.382Z,2.80
2018-04-13T12:43:19.111Z,4.40
2018-04-13T12:44:25.797Z,2.80
2018-04-13T12:45:32.531Z,4.20
2018-04-13T12:46:39.267Z,2.60
2018-04-13T12:47:46.040Z,5.40
2018-04-13T12:48:52.768Z,4.00
2018-04-13T12:49:59.476Z,3.50
2018-04-13T12:51:06.238Z,2.50
2018-04-13T12:52:13.065Z,3.80
2018-04-13T12:53:19.811Z,3.90
2018-04-13T12:54:26.681Z,2.60
2018-04-13T12:55:33.330Z,2.40
2018-04-13T12:56:40.135Z,2.80
2018-04-13T12:57:46.874Z,13.30
2018-04-13T12:58:53.684Z,3.20
2018-04-13T13:00:00.516Z,2.80
2018-04-13T13:01:07.436Z,2.40
2018-04-13T13:02:14.144Z,5.50
2018-04-13T13:03:20.872Z,3.90
2018-04-13T13:04:27.587Z,2.40
2018-04-13T13:05:34.391Z,2.30
2018-04-13T13:06:41.153Z,5.20
2018-04-13T13:07:47.863Z,4.10
2018-04-13T13:08:54.640Z,2.10
2018-04-13T13:10:01.307Z,2.90
2018-04-13T13:11:08.048Z,2.20
2018-04-13T13:12:14.891Z,2.80
2018-04-13T13:13:21.712Z,2.30
2018-04-13T13:14:28.439Z,2.60
2018-04-13T13:15:35.572Z,3.40
2018-04-13T13:16:42.297Z,4.30
2018-04-13T13:17:49.157Z,5.00
2018-04-13T13:18:56.216Z,4.50
2018-04-13T13:20:02.977Z,4.00
2018-04-13T13:21:09.699Z,5.50
2018-04-13T13:22:16.827Z,5.20
2018-04-13T13:23:23.539Z,5.20
2018-04-13T13:24:30.268Z,5.30
2018-04-13T13:25:37.148Z,6.20
2018-04-13T13:26:44.041Z,6.70
2018-04-13T13:27:50.816Z,7.60
2018-04-13T13:28:57.910Z,6.30
2018-04-13T13:30:04.719Z,5.70
2018-04-13T13:31:11.415Z,2.90
2018-04-13T13:32:18.448Z,2.30
2018-04-13T13:33:25.184Z,2.10
2018-04-13T13:34:31.913Z,2.40
2018-04-13T13:35:38.626Z,2.20
2018-04-13T13:36:45.366Z,3.00
2018-04-13T13:37:52.155Z,4.80
2018-04-13T13:38:59.244Z,2.50
2018-04-13T13:40:06.116Z,3.00
2018-04-13T13:41:12.895Z,2.50
2018-04-13T13:42:19.695Z,2.30
2018-04-13T13:43:26.512Z,2.30
2018-04-13T13:44:33.330Z,2.00
2018-04-13T13:45:40.049Z,2.70
2018-04-13T13:46:46.843Z,3.00
2018-04-13T13:47:53.596Z,11.70
2018-04-13T13:49:00.572Z,11.30
2018-04-13T13:50:07.367Z,3.90
2018-04-13T13:51:14.211Z,3.70
2018-04-13T13:52:20.935Z,2.50
2018-04-13T13:53:27.694Z,3.30
2018-04-13T13:54:34.451Z,6.20
2018-04-13T13:55:41.180Z,2.10
2018-04-13T13:56:47.939Z,2.20
2018-04-13T13:57:54.664Z,2.20
2018-04-13T13:59:01.456Z,2.00
2018-04-13T14:00:08.196Z,2.50
2018-04-13T14:01:14.907Z,2.50
2018-04-13T14:02:21.652Z,2.10
2018-04-13T14:03:28.386Z,2.60
2018-04-13T14:04:35.141Z,2.40
2018-04-13T14:05:42.030Z,2.40
2018-04-13T14:06:48.760Z,2.80
2018-04-13T14:07:55.548Z,2.50
2018-04-13T14:09:02.363Z,2.60
2018-04-13T14:10:09.490Z,4.20
2018-04-13T14:11:16.216Z,2.20
2018-04-13T14:12:22.964Z,3.00
2018-04-13T14:13:29.699Z,2.80
2018-04-13T14:14:36.433Z,3.00
2018-04-13T14:15:43.215Z,2.10
2018-04-13T14:16:49.945Z,2.10
2018-04-13T14:17:56.695Z,2.60
2018-04-13T14:19:03.416Z,2.40
2018-04-13T14:20:10.160Z,2.30
2018-04-13T14:21:16.952Z,2.60
2018-04-13T14:22:23.675Z,5.00
2018-04-13T14:23:30.414Z,3.10
2018-04-13T14:24:37.183Z,2.40
2018-04-13T14:25:44.607Z,3.10
2018-04-13T14:26:51.487Z,2.50
2018-04-13T14:27:58.068Z,5.20
2018-04-13T14:29:04.800Z,2.40
2018-04-13T14:30:11.637Z,4.10
2018-04-13T14:31:18.467Z,2.70
2018-04-13T14:32:25.179Z,2.30
2018-04-13T14:33:31.967Z,2.10
2018-04-13T14:34:38.723Z,2.20
2018-04-13T14:35:45.481Z,2.70
2018-04-13T14:36:52.244Z,6.00
2018-04-13T14:37:59.095Z,8.30